Time;durP1;ratioP1;P1;durP2;ratioP2;P2;SDS_P1;SDS_P2;PMS_P1;PMS_P2;Temp;Humidity;BMP_temperature;BMP_pressure;BME280_temperature;BME280_humidity;BME280_pressure;Samples;Min_cycle;Max_cycle;Signal;HPM_P1;HPM_P2
2021/12/24 00:01:45;;;;;;;65.80;23.90;;;7.70;99.90;;;;;;5131118;27;20129;-67
2021/12/24 00:04:10;;;;;;;77.68;25.33;;;7.80;99.90;;;;;;5128729;27;20096;-67
2021/12/24 00:06:36;;;;;;;79.80;24.05;;;7.80;99.90;;;;;;5141562;27;20034;-67
2021/12/24 00:09:04;;;;;;;92.45;28.23;;;7.80;99.90;;;;;;5139619;27;20057;-67
2021/12/24 00:11:30;;;;;;;80.90;25.88;;;7.80;99.90;;;;;;5120386;27;20142;-67
2021/12/24 00:13:56;;;;;;;102.28;27.00;;;7.80;99.90;;;;;;5135351;27;20092;-67
2021/12/24 00:16:26;;;;;;;74.55;25.13;;;7.80;99.90;;;;;;5131214;27;20039;-67
2021/12/24 00:19:02;;;;;;;115.85;30.52;;;7.80;99.90;;;;;;5142338;27;20133;-67
2021/12/24 00:37:55;;;;;;;83.72;25.60;;;7.70;99.90;;;;;;5138911;27;20057;-66
2021/12/24 00:40:21;;;;;;;87.95;26.45;;;7.70;99.90;;;;;;5138977;27;20051;-66
2021/12/24 00:42:52;;;;;;;67.63;21.83;;;7.70;99.90;;;;;;5138959;27;20054;-66
2021/12/24 00:45:23;;;;;;;81.07;23.92;;;7.70;99.90;;;;;;5129853;27;20409;-66
2021/12/24 00:47:50;;;;;;;77.35;21.48;;;7.70;99.90;;;;;;5144706;27;20139;-66
2021/12/24 00:50:22;;;;;;;70.78;22.15;;;7.80;99.90;;;;;;5131626;27;20042;-65
2021/12/24 00:52:58;;;;;;;68.72;21.63;;;7.80;99.90;;;;;;5116507;27;20806;-66
2021/12/24 00:55:29;;;;;;;64.63;20.10;;;7.80;99.90;;;;;;5123749;27;20084;-66
2021/12/24 00:58:01;;;;;;;53.50;18.88;;;7.70;99.90;;;;;;5133842;27;20051;-66
2021/12/24 01:00:29;;;;;;;52.55;18.02;;;7.80;99.90;;;;;;5116102;27;20042;-66
2021/12/24 01:02:56;;;;;;;77.28;21.73;;;7.80;99.90;;;;;;5137290;27;20542;-66
2021/12/24 01:05:24;;;;;;;75.38;22.73;;;7.80;99.90;;;;;;5130122;27;20050;-66
2021/12/24 01:07:50;;;;;;;81.80;23.77;;;7.80;99.90;;;;;;5140716;27;20074;-66
2021/12/24 01:10:22;;;;;;;53.40;19.98;;;7.80;99.90;;;;;;5124292;27;20067;-66
2021/12/24 01:12:48;;;;;;;66.18;22.55;;;7.80;99.90;;;;;;5130570;27;20402;-66
2021/12/24 01:15:15;;;;;;;63.42;22.63;;;7.80;99.90;;;;;;5128262;27;20230;-66
2021/12/24 01:17:50;;;;;;;77.50;23.50;;;7.80;99.90;;;;;;5141124;27;20461;-66
2021/12/24 01:20:37;;;;;;;58.13;21.85;;;7.90;99.90;;;;;;5125534;27;20074;-66
2021/12/24 01:25:53;;;;;;;60.75;22.67;;;7.90;99.90;;;;;;5130182;27;20401;-65
2021/12/24 01:28:36;;;;;;;59.08;23.33;;;7.90;99.90;;;;;;5136211;27;20598;-66
2021/12/24 01:39:38;;;;;;;57.53;23.17;;;8.00;99.90;;;;;;5143648;27;20127;-66
2021/12/24 01:44:48;;;;;;;54.92;23.02;;;8.00;99.90;;;;;;5125278;27;20210;-66
2021/12/24 01:47:14;;;;;;;71.25;25.25;;;8.00;99.90;;;;;;5113388;28;20051;-66
2021/12/24 01:49:39;;;;;;;70.97;28.60;;;8.00;99.90;;;;;;5130447;27;20050;-66
2021/12/24 01:52:06;;;;;;;80.63;28.90;;;8.00;99.90;;;;;;5131770;27;20047;-67
2021/12/24 01:54:32;;;;;;;66.43;27.33;;;8.10;99.90;;;;;;5133897;27;20054;-66
2021/12/24 01:56:58;;;;;;;84.05;28.98;;;8.00;99.90;;;;;;5119479;27;20558;-66
2021/12/24 01:59:24;;;;;;;71.88;26.75;;;8.10;99.90;;;;;;5134991;27;20039;-66
2021/12/24 02:01:49;;;;;;;77.28;26.50;;;8.10;99.90;;;;;;5138452;27;20039;-66
2021/12/24 02:04:16;;;;;;;73.47;24.83;;;8.10;99.90;;;;;;5132378;27;20478;-67
2021/12/24 02:06:43;;;;;;;74.20;23.83;;;8.10;99.90;;;;;;5139534;27;20039;-66
2021/12/24 02:09:10;;;;;;;58.22;21.48;;;8.10;99.90;;;;;;5138179;27;20406;-66
2021/12/24 02:11:38;;;;;;;74.57;22.63;;;8.10;99.90;;;;;;5114565;27;20410;-66
2021/12/24 02:14:09;;;;;;;83.07;23.83;;;8.10;99.90;;;;;;5142084;27;20045;-66
2021/12/24 02:30:03;;;;;;;105.97;26.50;;;8.20;99.90;;;;;;5132456;27;20107;-67
2021/12/24 02:32:28;;;;;;;112.88;26.23;;;8.20;99.90;;;;;;5136357;27;20291;-67
2021/12/24 02:34:54;;;;;;;115.45;28.15;;;8.20;99.90;;;;;;5130913;27;20042;-67
2021/12/24 02:37:19;;;;;;;138.98;30.77;;;8.30;99.90;;;;;;5112215;28;20059;-67
2021/12/24 02:39:45;;;;;;;97.78;28.55;;;8.20;99.90;;;;;;5099669;28;20050;-67
2021/12/24 02:42:11;;;;;;;127.57;30.05;;;8.30;99.90;;;;;;5141154;27;20041;-67
2021/12/24 02:44:37;;;;;;;93.15;27.55;;;8.30;99.90;;;;;;5141577;27;20510;-67
2021/12/24 02:53:56;;;;;;;93.88;27.75;;;8.30;99.90;;;;;;5139092;27;20082;-67
2021/12/24 02:55:10;;;;;;;;;;;8.30;99.90;;;;;;5113727;27;20059;-68
2021/12/24 02:57:38;;;;;;;82.30;22.48;;;8.30;99.90;;;;;;5127061;27;19930;-67
2021/12/24 03:00:13;;;;;;;70.63;24.35;;;8.30;99.90;;;;;;5119310;27;20646;-67
2021/12/24 03:02:39;;;;;;;74.60;25.25;;;8.40;99.90;;;;;;5136423;27;20034;-67
2021/12/24 03:05:06;;;;;;;80.85;25.30;;;8.40;99.90;;;;;;5123152;27;20479;-67
2021/12/24 03:07:32;;;;;;;84.13;28.85;;;8.40;99.90;;;;;;5131519;27;20049;-67
2021/12/24 03:09:59;;;;;;;83.50;27.23;;;8.40;99.90;;;;;;5141869;27;20526;-68
2021/12/24 03:12:26;;;;;;;86.68;25.10;;;8.40;99.90;;;;;;5132061;27;20046;-67
2021/12/24 03:14:52;;;;;;;91.93;28.80;;;8.40;99.90;;;;;;5128670;27;20609;-68
2021/12/24 03:17:21;;;;;;;94.72;27.67;;;8.40;99.90;;;;;;5139020;27;20055;-68
2021/12/24 03:19:47;;;;;;;77.38;25.15;;;8.50;99.90;;;;;;5126595;27;20493;-68
2021/12/24 03:22:30;;;;;;;107.07;29.45;;;8.40;99.90;;;;;;5138450;27;20053;-68
2021/12/24 03:24:56;;;;;;;124.27;34.33;;;8.40;99.90;;;;;;5142907;27;20050;-67
2021/12/24 03:27:22;;;;;;;106.28;30.15;;;8.50;99.90;;;;;;5136346;27;20050;-67
2021/12/24 03:29:49;;;;;;;133.20;36.30;;;8.50;99.90;;;;;;5130634;27;20051;-68
2021/12/24 03:32:14;;;;;;;127.90;40.25;;;8.50;99.90;;;;;;5115147;27;20406;-67
2021/12/24 03:34:40;;;;;;;102.72;36.00;;;8.50;99.90;;;;;;5124949;27;20043;-67
2021/12/24 03:37:07;;;;;;;100.63;38.40;;;8.50;99.90;;;;;;5115196;27;20129;-68
2021/12/24 03:39:32;;;;;;;104.65;39.78;;;8.50;99.90;;;;;;5129524;27;20035;-67
2021/12/24 03:41:58;;;;;;;91.60;35.35;;;8.50;99.90;;;;;;5114561;27;20051;-68
2021/12/24 03:44:33;;;;;;;89.43;34.10;;;8.50;99.90;;;;;;5130358;27;20039;-67
2021/12/24 03:47:09;;;;;;;85.80;33.45;;;8.50;99.90;;;;;;5133260;27;20537;-67
2021/12/24 03:52:39;;;;;;;79.30;32.00;;;8.60;99.90;;;;;;5130826;27;20130;-67
2021/12/24 03:55:05;;;;;;;87.47;32.95;;;8.60;99.90;;;;;;5123448;27;20047;-68
2021/12/24 03:57:40;;;;;;;85.65;34.13;;;8.60;99.90;;;;;;5142275;27;20490;-67
2021/12/24 04:00:17;;;;;;;84.55;32.38;;;8.60;99.90;;;;;;5130860;27;20058;-68
2021/12/24 04:02:43;;;;;;;81.57;29.67;;;8.60;99.90;;;;;;5134975;27;20043;-67
2021/12/24 04:05:09;;;;;;;80.25;31.60;;;8.60;99.90;;;;;;5119246;27;20566;-68
2021/12/24 04:07:35;;;;;;;83.32;31.05;;;8.70;99.90;;;;;;5112584;27;20047;-68
2021/12/24 04:12:26;;;;;;;91.20;32.65;;;8.70;99.90;;;;;;5132716;27;20040;-68
2021/12/24 04:14:52;;;;;;;72.90;29.50;;;8.60;99.90;;;;;;5127347;27;20039;-68
2021/12/24 04:17:18;;;;;;;69.43;28.13;;;8.70;99.90;;;;;;5129907;27;20513;-67
2021/12/24 04:25:13;;;;;;;63.42;27.23;;;8.70;99.90;;;;;;5113079;27;20087;-68
2021/12/24 04:27:39;;;;;;;78.47;30.10;;;8.70;99.90;;;;;;5144832;27;20055;-68
2021/12/24 04:30:11;;;;;;;76.22;28.88;;;8.70;99.90;;;;;;5118305;27;20054;-67
2021/12/24 04:32:54;;;;;;;90.00;31.73;;;8.70;99.90;;;;;;5147807;27;20398;-68
2021/12/24 04:38:27;;;;;;;100.07;32.20;;;8.70;99.90;;;;;;5131216;27;20058;-67
2021/12/24 04:52:11;;;;;;;71.30;24.73;;;8.70;99.90;;;;;;5138959;27;20070;-68
2021/12/24 05:03:02;;;;;;;57.78;17.13;;;8.70;99.90;;;;;;5125756;27;20122;-68
2021/12/24 05:05:48;;;;;;;56.85;18.55;;;8.70;99.90;;;;;;5112326;27;20145;-67
2021/12/24 05:10:46;;;;;;;49.75;16.00;;;8.70;99.90;;;;;;5121168;27;20035;-68
2021/12/24 05:13:14;;;;;;;70.10;17.48;;;8.80;99.90;;;;;;5105842;27;20053;-68
2021/12/24 05:15:42;;;;;;;51.95;15.63;;;8.80;99.90;;;;;;5141150;27;20054;-68
2021/12/24 05:23:39;;;;;;;41.35;12.70;;;8.80;99.90;;;;;;5138639;27;20727;-68
2021/12/24 05:26:05;;;;;;;53.45;13.70;;;8.80;99.90;;;;;;5131920;27;20042;-68
2021/12/24 05:28:31;;;;;;;57.60;13.68;;;8.80;99.90;;;;;;5139313;27;20518;-68
2021/12/24 05:30:56;;;;;;;45.35;12.52;;;8.80;99.90;;;;;;5128646;27;20051;-68
2021/12/24 05:33:22;;;;;;;45.15;12.82;;;8.80;99.90;;;;;;5125228;27;20129;-68
2021/12/24 05:35:48;;;;;;;47.38;12.32;;;8.80;99.90;;;;;;5128406;27;20043;-68
2021/12/24 05:38:15;;;;;;;50.80;11.77;;;8.80;99.90;;;;;;5128599;27;20435;-68
2021/12/24 05:40:42;;;;;;;54.50;12.38;;;8.80;99.90;;;;;;5127718;27;20042;-68
2021/12/24 05:43:08;;;;;;;55.67;12.10;;;8.80;99.90;;;;;;5117365;28;20091;-68
2021/12/24 05:45:34;;;;;;;40.78;11.35;;;8.80;99.90;;;;;;5118262;27;20042;-68
2021/12/24 05:48:00;;;;;;;42.95;12.23;;;8.70;99.90;;;;;;5137118;27;20062;-68
2021/12/24 05:50:25;;;;;;;52.22;12.00;;;8.80;99.90;;;;;;5127125;28;20066;-68
2021/12/24 05:52:51;;;;;;;42.03;10.75;;;8.70;99.90;;;;;;5128047;28;20039;-68
2021/12/24 05:55:17;;;;;;;46.42;12.02;;;8.70;99.90;;;;;;5133356;27;20097;-68
2021/12/24 05:57:42;;;;;;;52.08;11.77;;;8.70;99.90;;;;;;5144478;27;20043;-68
2021/12/24 06:00:10;;;;;;;44.15;11.38;;;8.70;99.90;;;;;;5129180;28;20039;-68
2021/12/24 06:02:35;;;;;;;46.90;11.90;;;8.70;99.90;;;;;;5139563;27;20031;-68
2021/12/24 06:05:01;;;;;;;42.15;11.82;;;8.70;99.90;;;;;;5141389;27;20103;-68
2021/12/24 06:07:26;;;;;;;39.63;10.73;;;8.70;99.90;;;;;;5129326;27;20064;-68
2021/12/24 06:09:52;;;;;;;37.35;12.35;;;8.70;99.90;;;;;;5131300;27;20513;-68
2021/12/24 06:12:18;;;;;;;45.45;12.57;;;8.70;99.90;;;;;;5128818;27;20119;-68
2021/12/24 06:14:45;;;;;;;53.78;11.85;;;8.70;99.90;;;;;;5115884;28;20050;-67
2021/12/24 06:17:16;;;;;;;55.95;11.60;;;8.70;99.90;;;;;;5127861;28;20183;-68
2021/12/24 06:19:42;;;;;;;58.28;11.90;;;8.60;99.90;;;;;;5110626;28;20039;-68
2021/12/24 06:22:08;;;;;;;44.65;9.73;;;8.60;99.90;;;;;;5124362;27;20039;-68
2021/12/24 06:24:34;;;;;;;50.85;12.32;;;8.70;99.90;;;;;;5145677;27;20042;-68
2021/12/24 06:27:00;;;;;;;39.90;9.10;;;8.60;99.90;;;;;;5126238;28;20135;-68
2021/12/24 06:29:25;;;;;;;39.08;11.68;;;8.60;99.90;;;;;;5118647;28;20130;-68
2021/12/24 06:31:51;;;;;;;41.00;10.23;;;8.60;99.90;;;;;;5142646;27;20103;-69
2021/12/24 06:34:18;;;;;;;48.85;11.45;;;8.60;99.90;;;;;;5132584;27;20051;-69
2021/12/24 06:36:47;;;;;;;44.67;10.07;;;8.60;99.90;;;;;;5114014;27;20092;-68
2021/12/24 06:39:13;;;;;;;38.03;10.50;;;8.60;99.90;;;;;;5132050;27;20070;-68
2021/12/24 06:41:39;;;;;;;61.10;12.70;;;8.60;99.90;;;;;;5131777;27;20133;-68
2021/12/24 06:44:09;;;;;;;36.05;9.82;;;8.60;99.90;;;;;;5131948;27;20047;-68
2021/12/24 06:46:34;;;;;;;38.95;9.27;;;8.60;99.90;;;;;;5142544;27;20050;-68
2021/12/24 06:49:00;;;;;;;33.47;10.13;;;8.60;99.90;;;;;;5139986;27;20046;-68
2021/12/24 06:51:27;;;;;;;39.50;9.73;;;8.60;99.90;;;;;;5130935;27;20223;-68
2021/12/24 06:53:53;;;;;;;40.20;10.10;;;8.60;99.90;;;;;;5125519;27;20031;-68
2021/12/24 06:56:19;;;;;;;38.00;8.85;;;8.60;99.90;;;;;;5127416;27;20039;-68
2021/12/24 06:58:45;;;;;;;41.28;8.57;;;8.60;99.90;;;;;;5131460;27;20031;-68
2021/12/24 07:01:12;;;;;;;40.22;8.43;;;8.60;99.90;;;;;;5135341;27;20461;-68
2021/12/24 07:03:37;;;;;;;52.80;10.18;;;8.60;99.90;;;;;;5108516;27;20035;-68
2021/12/24 07:06:04;;;;;;;37.30;8.43;;;8.70;99.90;;;;;;5115592;27;20319;-68
2021/12/24 07:08:31;;;;;;;34.53;8.52;;;8.60;99.90;;;;;;5121509;27;20134;-69
2021/12/24 07:10:56;;;;;;;38.70;8.45;;;8.60;99.90;;;;;;5128472;27;20046;-68
2021/12/24 07:13:22;;;;;;;33.05;7.25;;;8.70;99.90;;;;;;5143492;27;20055;-68
2021/12/24 07:15:47;;;;;;;36.83;9.02;;;8.60;99.90;;;;;;5133539;27;20031;-69
2021/12/24 07:18:13;;;;;;;41.58;8.25;;;8.70;99.90;;;;;;5131886;27;20042;-69
2021/12/24 07:20:39;;;;;;;34.67;8.05;;;8.70;99.90;;;;;;5129940;27;20039;-69
2021/12/24 07:23:05;;;;;;;33.25;8.00;;;8.70;99.90;;;;;;5137362;27;20062;-69
2021/12/24 07:25:31;;;;;;;37.92;8.35;;;8.70;99.90;;;;;;5111476;27;20135;-69
2021/12/24 07:27:57;;;;;;;36.50;8.52;;;8.70;99.90;;;;;;5130651;27;20044;-68
2021/12/24 07:30:22;;;;;;;43.70;9.27;;;8.70;99.90;;;;;;5134355;27;20043;-68
2021/12/24 07:32:48;;;;;;;57.50;9.80;;;8.60;99.90;;;;;;5131208;27;20053;-68
2021/12/24 07:35:15;;;;;;;50.22;9.23;;;8.70;99.90;;;;;;5134216;27;20424;-67
2021/12/24 07:37:42;;;;;;;43.85;8.93;;;8.60;99.90;;;;;;5139254;27;20499;-67
2021/12/24 07:40:10;;;;;;;38.40;7.93;;;8.60;99.90;;;;;;5131967;27;20394;-68
2021/12/24 07:42:37;;;;;;;39.83;8.52;;;8.60;99.90;;;;;;5144115;27;20576;-67
2021/12/24 07:45:04;;;;;;;44.90;7.25;;;8.60;99.90;;;;;;5132920;27;20065;-67
2021/12/24 07:47:37;;;;;;;44.35;8.32;;;8.60;99.90;;;;;;5103197;27;20051;-67
2021/12/24 07:50:17;;;;;;;42.92;9.25;;;8.60;99.90;;;;;;5132829;27;20047;-67
2021/12/24 07:52:43;;;;;;;47.28;8.02;;;8.60;99.90;;;;;;5129130;27;20082;-67
2021/12/24 07:55:10;;;;;;;53.83;10.48;;;8.60;99.90;;;;;;5127903;27;20153;-67
2021/12/24 07:57:37;;;;;;;58.80;9.32;;;8.60;99.90;;;;;;5122497;27;20426;-67
2021/12/24 08:00:05;;;;;;;44.88;9.25;;;8.60;99.90;;;;;;5106460;27;20042;-67
2021/12/24 08:02:31;;;;;;;38.58;8.65;;;8.60;99.90;;;;;;5120591;27;20035;-67
2021/12/24 08:04:57;;;;;;;34.70;8.02;;;8.60;99.90;;;;;;5124922;27;20040;-67
2021/12/24 08:07:23;;;;;;;35.40;8.23;;;8.60;99.90;;;;;;5121306;27;20103;-67
2021/12/24 08:09:51;;;;;;;28.90;7.57;;;8.70;99.90;;;;;;5119656;27;20522;-67
2021/12/24 08:12:18;;;;;;;34.63;8.65;;;8.70;99.90;;;;;;5125771;27;20039;-67
2021/12/24 08:14:44;;;;;;;42.25;7.55;;;8.70;99.90;;;;;;5143068;27;20087;-67
2021/12/24 08:17:10;;;;;;;32.08;7.45;;;8.60;99.90;;;;;;5123804;27;20055;-67
2021/12/24 08:19:37;;;;;;;32.08;8.18;;;8.60;99.90;;;;;;5117327;27;20438;-67
2021/12/24 08:22:04;;;;;;;38.85;8.43;;;8.70;99.90;;;;;;5134177;27;20070;-68
2021/12/24 08:24:30;;;;;;;42.75;9.02;;;8.70;99.90;;;;;;5129313;27;20043;-67
2021/12/24 08:26:56;;;;;;;42.05;9.55;;;8.70;99.90;;;;;;5127670;27;20047;-67
2021/12/24 08:29:22;;;;;;;39.83;8.43;;;8.60;99.90;;;;;;5135989;27;20092;-67
2021/12/24 08:31:50;;;;;;;37.97;10.68;;;8.60;99.90;;;;;;5129339;27;20055;-67
2021/12/24 08:34:17;;;;;;;25.30;7.45;;;8.60;99.90;;;;;;5108106;27;20039;-68
2021/12/24 08:36:44;;;;;;;35.60;7.43;;;8.60;99.90;;;;;;5123309;27;20039;-68
2021/12/24 08:39:09;;;;;;;27.13;8.00;;;8.60;99.90;;;;;;5134966;27;20406;-68
2021/12/24 08:41:35;;;;;;;35.13;10.15;;;8.60;99.90;;;;;;5113438;27;20031;-68
2021/12/24 08:44:02;;;;;;;38.83;8.38;;;8.50;99.90;;;;;;5128994;27;20383;-68
2021/12/24 08:46:27;;;;;;;34.13;8.48;;;8.60;99.90;;;;;;5129632;27;20054;-68
2021/12/24 08:48:53;;;;;;;50.40;10.25;;;8.50;99.90;;;;;;5133650;27;20035;-68
2021/12/24 08:51:19;;;;;;;47.78;11.20;;;8.60;99.90;;;;;;5109931;27;20122;-68
2021/12/24 08:53:44;;;;;;;33.70;8.50;;;8.60;99.90;;;;;;5134479;27;20034;-68
2021/12/24 08:56:10;;;;;;;42.65;8.63;;;8.50;99.90;;;;;;5135998;27;20043;-68
2021/12/24 08:58:37;;;;;;;42.17;9.95;;;8.50;99.90;;;;;;5136408;27;20046;-68
2021/12/24 09:01:04;;;;;;;40.83;7.70;;;8.50;99.90;;;;;;5134093;27;20096;-68
2021/12/24 09:03:29;;;;;;;36.85;9.57;;;8.50;99.90;;;;;;5125359;27;20053;-67
2021/12/24 09:05:55;;;;;;;30.85;7.57;;;8.50;99.90;;;;;;5125941;27;20077;-68
2021/12/24 09:08:21;;;;;;;21.75;6.75;;;8.50;99.90;;;;;;5117357;27;20031;-68
2021/12/24 09:10:46;;;;;;;21.23;5.85;;;8.50;99.90;;;;;;5133559;27;20039;-67
2021/12/24 09:13:12;;;;;;;18.13;4.40;;;8.50;99.90;;;;;;5111462;27;20091;-67
2021/12/24 09:15:40;;;;;;;16.20;4.70;;;8.50;99.90;;;;;;5122746;27;20092;-67
2021/12/24 09:18:06;;;;;;;10.77;3.70;;;8.50;99.90;;;;;;5114210;27;20057;-66
2021/12/24 09:20:37;;;;;;;15.63;3.95;;;8.50;99.90;;;;;;5132435;27;20113;-66
2021/12/24 09:23:04;;;;;;;16.55;2.83;;;8.50;99.90;;;;;;5141252;27;20039;-66
2021/12/24 09:25:30;;;;;;;8.73;2.10;;;8.50;99.90;;;;;;5128888;27;20078;-66
2021/12/24 09:27:56;;;;;;;12.18;2.47;;;8.50;99.90;;;;;;5128152;27;20109;-66
2021/12/24 09:30:23;;;;;;;7.57;2.50;;;8.50;99.90;;;;;;5137524;27;20046;-66
2021/12/24 09:32:48;;;;;;;6.90;2.20;;;8.50;99.90;;;;;;5134014;27;20637;-66
2021/12/24 09:35:15;;;;;;;4.95;1.95;;;8.50;99.90;;;;;;5128664;27;20059;-66
2021/12/24 09:37:41;;;;;;;8.27;2.63;;;8.50;99.90;;;;;;5115743;27;20043;-66
2021/12/24 09:40:09;;;;;;;8.35;2.40;;;8.50;99.90;;;;;;5134151;27;20054;-66
2021/12/24 09:42:35;;;;;;;9.63;2.83;;;8.50;99.90;;;;;;5120101;28;20053;-66
2021/12/24 09:45:03;;;;;;;4.13;2.08;;;8.50;99.90;;;;;;5115459;27;20047;-66
2021/12/24 09:47:29;;;;;;;5.20;1.83;;;8.50;99.90;;;;;;5133525;27;20145;-66
2021/12/24 09:49:55;;;;;;;3.10;1.20;;;8.50;99.90;;;;;;5110606;28;20131;-66
2021/12/24 09:52:22;;;;;;;3.72;1.30;;;8.50;99.90;;;;;;5105474;28;20059;-66
2021/12/24 09:54:50;;;;;;;0.75;0.60;;;8.50;99.90;;;;;;5122426;27;20070;-67
2021/12/24 09:57:16;;;;;;;1.63;0.70;;;8.50;99.90;;;;;;5139350;27;20047;-66
2021/12/24 09:59:42;;;;;;;1.05;0.65;;;8.40;99.90;;;;;;5141763;27;20043;-66
2021/12/24 10:02:14;;;;;;;2.17;1.00;;;8.30;99.90;;;;;;5125569;27;20091;-66
2021/12/24 10:04:41;;;;;;;1.52;0.50;;;8.30;99.90;;;;;;5104152;27;20051;-66
2021/12/24 10:07:10;;;;;;;0.68;0.57;;;8.20;99.90;;;;;;5118634;27;20062;-66
2021/12/24 10:09:45;;;;;;;1.05;0.77;;;8.20;99.90;;;;;;5131695;27;20066;-66
2021/12/24 10:12:17;;;;;;;1.48;0.70;;;8.20;99.90;;;;;;5133133;27;20035;-67
2021/12/24 10:14:49;;;;;;;1.13;0.60;;;8.10;99.90;;;;;;5140030;27;20043;-68
2021/12/24 10:17:21;;;;;;;1.17;0.80;;;8.00;99.90;;;;;;5132340;27;20046;-68
2021/12/24 10:19:55;;;;;;;1.10;0.90;;;8.00;99.90;;;;;;5144466;27;20095;-68
2021/12/24 10:22:21;;;;;;;1.88;1.17;;;8.00;99.90;;;;;;5154097;27;20070;-68
2021/12/24 10:25:10;;;;;;;1.95;1.23;;;8.00;99.90;;;;;;5151816;27;20039;-67
2021/12/24 10:27:38;;;;;;;2.25;1.10;;;8.00;99.90;;;;;;5153711;27;20134;-67
2021/12/24 10:30:16;;;;;;;2.38;1.10;;;8.00;99.90;;;;;;5151469;27;20050;-68
2021/12/24 10:32:42;;;;;;;2.55;1.58;;;7.90;99.90;;;;;;5142490;27;20070;-67
2021/12/24 10:35:20;;;;;;;4.15;1.95;;;8.00;99.90;;;;;;5135733;27;20131;-68
2021/12/24 10:37:46;;;;;;;4.20;1.70;;;8.00;99.90;;;;;;5150329;27;20047;-68
2021/12/24 10:40:13;;;;;;;5.55;2.13;;;8.00;99.90;;;;;;5153595;27;20529;-68
2021/12/24 10:42:40;;;;;;;6.22;2.30;;;7.90;99.90;;;;;;5123974;27;20473;-68
2021/12/24 10:45:09;;;;;;;6.13;2.22;;;7.90;99.90;;;;;;5133636;27;20144;-68
2021/12/24 10:47:39;;;;;;;7.88;2.95;;;7.90;99.90;;;;;;5136178;27;20060;-68
2021/12/24 10:55:25;;;;;;;4.68;2.67;;;7.90;99.90;;;;;;5151244;27;20082;-68
2021/12/24 10:57:52;;;;;;;7.78;3.65;;;7.90;99.90;;;;;;5117708;27;20046;-67
2021/12/24 11:00:41;;;;;;;7.22;3.65;;;8.00;99.90;;;;;;5130462;27;20039;-68
2021/12/24 11:03:14;;;;;;;11.60;4.22;;;8.00;99.90;;;;;;5131827;27;20050;-68
2021/12/24 11:05:44;;;;;;;4.40;3.05;;;8.00;99.90;;;;;;5133486;27;20474;-67
2021/12/24 11:08:16;;;;;;;8.88;3.58;;;8.00;99.90;;;;;;5131559;27;20043;-68
2021/12/24 11:10:45;;;;;;;5.28;3.42;;;8.10;99.90;;;;;;5133043;27;20085;-68
2021/12/24 11:13:14;;;;;;;5.40;3.15;;;8.00;99.90;;;;;;5134424;27;20035;-69
2021/12/24 11:15:46;;;;;;;6.55;2.85;;;8.10;99.90;;;;;;5113532;27;20470;-68
2021/12/24 11:18:13;;;;;;;5.68;2.88;;;8.10;99.90;;;;;;5111368;27;20534;-68
2021/12/24 11:20:39;;;;;;;8.23;3.65;;;8.10;99.90;;;;;;5115179;27;20074;-69
2021/12/24 11:23:06;;;;;;;8.27;4.10;;;8.10;99.90;;;;;;5129817;27;20502;-69
2021/12/24 11:25:38;;;;;;;6.60;3.10;;;8.10;99.90;;;;;;5111206;27;20402;-68
2021/12/24 11:28:04;;;;;;;5.03;3.33;;;8.10;99.90;;;;;;5130893;27;20043;-69
2021/12/24 11:30:32;;;;;;;4.93;2.95;;;8.00;99.90;;;;;;5132300;27;20043;-69
2021/12/24 11:32:58;;;;;;;8.82;3.20;;;8.00;99.90;;;;;;5117320;27;20054;-69
2021/12/24 11:35:25;;;;;;;5.25;3.47;;;7.90;99.90;;;;;;5126129;27;20053;-69
2021/12/24 11:37:53;;;;;;;5.50;3.13;;;8.00;99.90;;;;;;5112909;27;20061;-70
2021/12/24 11:40:20;;;;;;;5.53;2.67;;;7.90;99.90;;;;;;5131758;27;20096;-69
2021/12/24 11:42:55;;;;;;;6.35;2.95;;;8.00;99.90;;;;;;5152220;27;20047;-69
2021/12/24 11:45:23;;;;;;;7.20;2.78;;;7.90;99.90;;;;;;5141165;27;20049;-69
2021/12/24 11:47:49;;;;;;;4.13;2.63;;;7.80;99.90;;;;;;5138204;27;20045;-69
2021/12/24 11:50:16;;;;;;;5.28;2.60;;;7.80;99.90;;;;;;5134636;27;20134;-69
2021/12/24 11:52:42;;;;;;;2.95;2.00;;;7.80;99.90;;;;;;5113210;27;20386;-70
2021/12/24 11:55:08;;;;;;;2.60;2.17;;;7.80;99.90;;;;;;5140340;27;20389;-70
2021/12/24 11:57:34;;;;;;;4.18;2.40;;;7.80;99.90;;;;;;5152241;27;20049;-69
2021/12/24 12:00:10;;;;;;;6.65;2.45;;;7.80;99.90;;;;;;5123501;27;20164;-69
2021/12/24 12:02:41;;;;;;;5.65;2.70;;;7.80;99.90;;;;;;5121384;27;20050;-69
2021/12/24 12:05:14;;;;;;;7.70;2.72;;;7.80;99.90;;;;;;5129839;27;20055;-70
2021/12/24 12:07:40;;;;;;;5.13;2.63;;;7.80;99.90;;;;;;5135678;27;20059;-70
2021/12/24 12:10:07;;;;;;;4.63;2.80;;;7.80;99.90;;;;;;5128449;27;20070;-70
2021/12/24 12:12:37;;;;;;;2.83;1.98;;;7.80;99.90;;;;;;5152098;27;20043;-70
2021/12/24 12:15:23;;;;;;;8.07;3.17;;;7.80;99.90;;;;;;5149745;27;20055;-70
2021/12/24 12:17:51;;;;;;;6.93;3.65;;;7.80;99.90;;;;;;5139030;27;20575;-70
2021/12/24 12:20:50;;;;;;;4.47;2.22;;;7.80;99.90;;;;;;5127596;27;20430;-70
2021/12/24 12:23:45;;;;;;;4.53;2.55;;;7.80;99.90;;;;;;5136568;27;20055;-70
2021/12/24 12:26:43;;;;;;;5.57;2.65;;;7.90;99.90;;;;;;5112229;27;20046;-69
2021/12/24 12:29:16;;;;;;;7.40;3.13;;;7.90;99.90;;;;;;5149484;27;20082;-70
2021/12/24 12:31:42;;;;;;;5.95;2.03;;;8.00;99.90;;;;;;5151486;27;20079;-70
2021/12/24 12:34:38;;;;;;;3.50;2.60;;;8.00;99.90;;;;;;5128678;27;20663;-70
2021/12/24 12:37:30;;;;;;;5.75;3.00;;;8.00;99.90;;;;;;5115227;27;20043;-70
2021/12/24 12:40:03;;;;;;;5.25;2.50;;;8.10;99.90;;;;;;5118399;27;20401;-71
2021/12/24 12:42:58;;;;;;;5.47;3.33;;;8.10;99.90;;;;;;5132108;27;20047;-70
2021/12/24 12:45:32;;;;;;;4.80;2.88;;;8.20;99.90;;;;;;5128161;27;20078;-70
2021/12/24 12:48:01;;;;;;;4.53;2.97;;;8.20;99.90;;;;;;5111606;27;20304;-69
2021/12/24 12:50:28;;;;;;;6.78;3.10;;;8.30;99.90;;;;;;5111512;27;20050;-71
2021/12/24 12:53:22;;;;;;;6.03;2.67;;;8.20;99.90;;;;;;5110623;27;20050;-70
2021/12/24 12:55:48;;;;;;;5.93;2.10;;;8.20;99.90;;;;;;5134804;27;20375;-70
2021/12/24 12:58:23;;;;;;;5.53;2.40;;;8.20;99.90;;;;;;5124080;27;20364;-70
2021/12/24 13:01:06;;;;;;;4.25;2.85;;;8.30;99.90;;;;;;5128670;27;20050;-70
2021/12/24 13:03:33;;;;;;;5.00;2.55;;;8.40;99.90;;;;;;5125479;27;20043;-70
2021/12/24 13:06:04;;;;;;;4.53;2.25;;;8.30;99.90;;;;;;5128759;27;20122;-70
2021/12/24 13:08:36;;;;;;;2.47;1.80;;;8.40;99.90;;;;;;5126276;27;20082;-68
2021/12/24 13:11:08;;;;;;;7.70;4.35;;;8.40;99.90;;;;;;5110872;27;20051;-69
2021/12/24 13:13:56;;;;;;;10.73;4.85;;;8.50;99.90;;;;;;5110293;27;20039;-70
2021/12/24 13:16:33;;;;;;;13.85;2.40;;;8.40;99.90;;;;;;5116352;27;20043;-70
2021/12/24 13:19:20;;;;;;;4.63;1.38;;;8.40;99.90;;;;;;5119139;27;20461;-70
2021/12/24 13:25:15;;;;;;;4.28;2.50;;;8.30;99.90;;;;;;5121467;27;20127;-70
2021/12/24 13:27:50;;;;;;;3.72;2.10;;;8.30;99.90;;;;;;5124047;27;20144;-70
2021/12/24 13:30:28;;;;;;;3.25;1.35;;;8.30;99.90;;;;;;5150182;27;20046;-70
2021/12/24 13:33:07;;;;;;;2.97;2.55;;;8.30;99.90;;;;;;5119425;27;20577;-70
2021/12/24 13:35:48;;;;;;;4.35;1.23;;;8.30;99.90;;;;;;5130692;27;20047;-70
2021/12/24 13:38:28;;;;;;;2.35;0.90;;;8.30;99.90;;;;;;5140758;27;20122;-70
2021/12/24 13:40:55;;;;;;;3.28;0.93;;;8.20;99.90;;;;;;5148962;27;20181;-70
2021/12/24 13:43:21;;;;;;;2.47;0.80;;;8.20;99.90;;;;;;5149075;27;20076;-70
2021/12/24 13:45:50;;;;;;;1.80;0.77;;;8.20;99.90;;;;;;5145321;27;20043;-71
2021/12/24 13:48:30;;;;;;;2.35;0.95;;;8.20;99.90;;;;;;5130503;27;20487;-70
2021/12/24 13:56:26;;;;;;;5.43;2.17;;;8.20;99.90;;;;;;5150118;27;20133;-70
2021/12/24 13:58:57;;;;;;;5.03;1.67;;;8.20;99.90;;;;;;5150079;27;20039;-70
2021/12/24 14:01:30;;;;;;;7.35;3.40;;;8.20;99.90;;;;;;5108869;27;20062;-70
2021/12/24 14:03:57;;;;;;;7.25;3.75;;;8.20;99.90;;;;;;5138057;27;20051;-70
2021/12/24 14:06:36;;;;;;;4.38;0.98;;;8.10;99.90;;;;;;5150370;27;20039;-70
2021/12/24 14:09:13;;;;;;;1.92;0.88;;;8.10;99.90;;;;;;5142069;27;20043;-70
2021/12/24 14:11:40;;;;;;;3.20;1.42;;;8.10;99.90;;;;;;5137142;27;20123;-69
2021/12/24 14:14:11;;;;;;;2.65;0.82;;;8.00;99.90;;;;;;5115197;28;20551;-69
2021/12/24 14:19:32;;;;;;;1.40;1.02;;;8.00;99.90;;;;;;5126565;27;20047;-68
2021/12/24 14:22:15;;;;;;;3.72;1.00;;;7.90;99.90;;;;;;5133975;27;20043;-68
2021/12/24 14:24:51;;;;;;;2.38;0.82;;;7.90;99.90;;;;;;5115499;28;20054;-68
2021/12/24 14:27:19;;;;;;;1.38;0.55;;;7.90;99.90;;;;;;5128343;28;20042;-69
2021/12/24 14:29:54;;;;;;;3.13;0.80;;;7.90;99.90;;;;;;5113650;27;20068;-68
2021/12/24 14:32:37;;;;;;;0.95;0.70;;;7.90;99.90;;;;;;5131896;27;20093;-69
2021/12/24 14:35:19;;;;;;;1.98;0.90;;;7.80;99.90;;;;;;5114488;27;20088;-69
2021/12/24 14:38:07;;;;;;;2.15;0.60;;;7.80;99.90;;;;;;5141849;27;20043;-69
2021/12/24 14:40:35;;;;;;;2.42;0.95;;;7.80;99.90;;;;;;5135881;27;20043;-68
2021/12/24 14:43:15;;;;;;;2.17;1.00;;;7.70;99.90;;;;;;5127490;27;20523;-69
2021/12/24 14:45:44;;;;;;;1.85;0.95;;;7.70;99.90;;;;;;5128826;28;20043;-69